createdAt,value
2022-12-31T00:01:21.646Z,98914.47
2022-12-31T00:03:49.593Z,98912.88
2022-12-31T00:06:31.336Z,98918.88
2022-12-31T00:08:59.744Z,98903.81
2022-12-31T00:11:28.922Z,98905.84
2022-12-31T00:13:55.788Z,98902.59
2022-12-31T00:16:25.195Z,98890.47
2022-12-31T00:18:54.279Z,98887.88
2022-12-31T00:21:21.949Z,98879.66
2022-12-31T00:23:49.144Z,98882.44
2022-12-31T00:26:18.111Z,98866.63
2022-12-31T00:28:45.452Z,98870.69
2022-12-31T00:31:22.871Z,98862.63
2022-12-31T00:33:50.050Z,98866.34
2022-12-31T00:36:19.965Z,98861.50
2022-12-31T00:38:48.773Z,98847.56
2022-12-31T00:41:16.354Z,98851.63
2022-12-31T00:43:43.004Z,98852.44
2022-12-31T00:46:11.851Z,98855.19
2022-12-31T00:48:39.105Z,98865.41
2022-12-31T00:51:08.488Z,98872.84
2022-12-31T00:53:35.407Z,98877.56
2022-12-31T00:56:04.209Z,98872.84
2022-12-31T00:58:30.957Z,98868.78
2022-12-31T01:00:58.035Z,98872.84
2022-12-31T01:03:25.817Z,98861.03
2022-12-31T01:05:52.605Z,98866.22
2022-12-31T01:08:19.153Z,98868.97
2022-12-31T01:10:52.191Z,98864.78
2022-12-31T01:13:18.764Z,98866.88
2022-12-31T01:15:45.370Z,98871.91
2022-12-31T01:18:11.953Z,98864.44
2022-12-31T01:20:40.302Z,98863.94
2022-12-31T01:23:08.874Z,98860.72
2022-12-31T01:25:40.175Z,98855.03
2022-12-31T01:28:06.915Z,98860.88
2022-12-31T01:30:33.490Z,98853.59
2022-12-31T01:33:00.109Z,98857.16
2022-12-31T01:35:26.717Z,98853.44
2022-12-31T01:37:53.286Z,98862.50
2022-12-31T01:40:19.867Z,98862.50
2022-12-31T01:42:54.337Z,98855.53
2022-12-31T01:45:21.337Z,98861.53
2022-12-31T01:47:51.859Z,98868.16
2022-12-31T01:50:24.429Z,98863.47
2022-12-31T01:52:54.590Z,98865.41
2022-12-31T01:55:56.332Z,98865.09
2022-12-31T01:58:42.164Z,98863.16
2022-12-31T02:01:10.114Z,98862.50
2022-12-31T02:03:37.286Z,98864.44
2022-12-31T02:06:13.639Z,98872.22
2022-12-31T02:08:42.269Z,98866.72
2022-12-31T02:11:38.801Z,98864.47
2022-12-31T02:14:27.166Z,98861.53
2022-12-31T02:17:30.864Z,98865.13
2022-12-31T02:20:34.680Z,98861.38
2022-12-31T02:23:46.952Z,98864.78
2022-12-31T02:26:28.499Z,98863.81
2022-12-31T02:29:19.925Z,98870.63
2022-12-31T02:31:52.915Z,98871.91
2022-12-31T02:34:58.741Z,98871.09
2022-12-31T02:37:28.897Z,98870.78
2022-12-31T02:39:56.402Z,98876.28
2022-12-31T02:42:22.958Z,98870.31
2022-12-31T02:44:49.576Z,98873.84
2022-12-31T02:47:37.845Z,98868.31
2022-12-31T02:50:32.290Z,98870.59
2022-12-31T02:53:32.942Z,98875.28
2022-12-31T02:56:04.405Z,98872.53
2022-12-31T02:58:30.899Z,98876.44
2022-12-31T03:00:58.751Z,98872.88
2022-12-31T03:03:27.314Z,98868.81
2022-12-31T03:05:55.537Z,98875.94
2022-12-31T03:08:23.961Z,98878.69
2022-12-31T03:10:50.855Z,98878.38
2022-12-31T03:13:17.650Z,98881.44
2022-12-31T03:15:44.261Z,98885.81
2022-12-31T03:18:16.171Z,98871.25
2022-12-31T03:20:44.573Z,98876.25
2022-12-31T03:23:13.429Z,98880.31
2022-12-31T03:25:40.325Z,98877.22
2022-12-31T03:28:09.755Z,98883.56
2022-12-31T03:30:38.957Z,98874.81
2022-12-31T03:33:07.442Z,98878.69
2022-12-31T03:35:36.434Z,98876.75
2022-12-31T03:38:04.034Z,98873.19
2022-12-31T03:40:31.732Z,98872.69
2022-12-31T03:42:58.317Z,98880.16
2022-12-31T03:45:24.835Z,98884.53
2022-12-31T03:47:51.369Z,98869.63
2022-12-31T03:50:19.095Z,98878.38
2022-12-31T03:52:46.121Z,98881.94
2022-12-31T03:55:13.046Z,98881.94
2022-12-31T03:57:40.170Z,98879.97
2022-12-31T04:00:09.400Z,98880.94
2022-12-31T04:02:36.409Z,98874.94
2022-12-31T04:05:03.187Z,98883.53
2022-12-31T04:07:29.889Z,98879.47
2022-12-31T04:09:56.453Z,98881.56
2022-12-31T04:12:23.335Z,98883.84
2022-12-31T04:14:50.012Z,98884.47
2022-12-31T04:17:16.623Z,98880.88
2022-12-31T04:19:43.211Z,98872.94
2022-12-31T04:22:09.733Z,98880.44
2022-12-31T04:24:36.218Z,98880.44
2022-12-31T04:27:07.540Z,98877.50
2022-12-31T04:29:35.484Z,98878.28
2022-12-31T04:32:02.900Z,98879.56
2022-12-31T04:34:29.481Z,98878.13
2022-12-31T04:36:56.178Z,98883.47
2022-12-31T04:39:22.787Z,98894.63
2022-12-31T04:41:49.487Z,98893.19
2022-12-31T04:44:16.223Z,98892.69
2022-12-31T04:46:42.860Z,98889.75
2022-12-31T04:49:09.434Z,98889.75
2022-12-31T04:51:36.619Z,98894.78
2022-12-31T04:54:03.559Z,98893.63
2022-12-31T04:56:30.448Z,98894.28
2022-12-31T04:58:57.029Z,98895.78
2022-12-31T05:01:24.465Z,98893.19
2022-12-31T05:03:51.410Z,98902.28
2022-12-31T05:06:20.532Z,98906.97
2022-12-31T05:08:47.666Z,98902.94
2022-12-31T05:11:14.498Z,98903.13
2022-12-31T05:13:41.361Z,98899.75
2022-12-31T05:16:08.153Z,98906.41
2022-12-31T05:18:35.523Z,98909.81
2022-12-31T05:21:02.267Z,98909.31
2022-12-31T05:23:28.977Z,98911.75
2022-12-31T05:25:55.838Z,98904.63
2022-12-31T05:28:22.463Z,98914.34
2022-12-31T05:30:50.715Z,98912.88
2022-12-31T05:33:18.511Z,98909.78
2022-12-31T05:35:46.004Z,98919.84
2022-12-31T05:38:12.689Z,98919.19
2022-12-31T05:40:39.382Z,98926.34
2022-12-31T05:43:06.104Z,98926.63
2022-12-31T05:45:32.738Z,98928.56
2022-12-31T05:47:59.235Z,98920.28
2022-12-31T05:50:26.021Z,98922.56
2022-12-31T05:52:52.623Z,98929.09
2022-12-31T05:55:19.298Z,98930.72
2022-12-31T05:57:46.049Z,98931.69
2022-12-31T06:00:13.099Z,98936.22
2022-12-31T06:02:39.684Z,98942.56
2022-12-31T06:05:06.657Z,98944.81
2022-12-31T06:07:33.384Z,98943.53
2022-12-31T06:09:59.968Z,98951.59
2022-12-31T06:12:27.366Z,98954.66
2022-12-31T06:14:53.870Z,98960.84
2022-12-31T06:17:20.491Z,98960.00
2022-12-31T06:19:47.123Z,98957.25
2022-12-31T06:22:14.029Z,98959.69
2022-12-31T06:24:40.532Z,98960.50
2022-12-31T06:27:07.049Z,98966.69
2022-12-31T06:29:33.605Z,98963.97
2022-12-31T06:32:00.182Z,98966.72
2022-12-31T06:34:26.793Z,98972.56
2022-12-31T06:36:53.373Z,98976.91
2022-12-31T06:39:19.887Z,98988.41
2022-12-31T06:41:46.523Z,98986.94
2022-12-31T06:44:13.067Z,98986.31
2022-12-31T06:46:39.631Z,98990.34
2022-12-31T06:49:06.229Z,98996.00
2022-12-31T06:51:32.818Z,99008.34
2022-12-31T06:53:59.293Z,99013.38
2022-12-31T06:56:33.423Z,99021.34
2022-12-31T06:59:01.588Z,99011.94
2022-12-31T07:01:58.032Z,99024.44
2022-12-31T07:04:45.645Z,99028.47
2022-12-31T07:07:16.896Z,99030.03
2022-12-31T07:09:43.300Z,99028.94
2022-12-31T07:12:44.222Z,99038.09
2022-12-31T07:15:43.601Z,99049.09
2022-12-31T07:18:20.415Z,99045.34
2022-12-31T07:20:47.224Z,99052.28
2022-12-31T07:23:14.047Z,99051.38
2022-12-31T07:25:49.056Z,99056.84
2022-12-31T07:28:20.861Z,99055.59
2022-12-31T07:31:06.200Z,99061.97
2022-12-31T07:34:12.417Z,99068.91
2022-12-31T07:37:17.250Z,99078.63
2022-12-31T07:40:03.278Z,99070.31
2022-12-31T07:43:03.736Z,99074.50
2022-12-31T07:45:41.208Z,99081.31
2022-12-31T07:48:26.538Z,99080.84
2022-12-31T07:50:55.000Z,99087.28
2022-12-31T07:53:25.528Z,99097.31
2022-12-31T07:55:58.260Z,99092.88
2022-12-31T07:58:53.741Z,99095.19
2022-12-31T08:01:35.838Z,99106.53
2022-12-31T08:04:11.480Z,99089.53
2022-12-31T08:06:53.513Z,99102.66
2022-12-31T08:09:35.567Z,99108.00
2022-12-31T08:12:03.017Z,99108.81
2022-12-31T08:14:30.390Z,99118.84
2022-12-31T08:16:57.463Z,99115.75
2022-12-31T08:19:30.512Z,99119.16
2022-12-31T08:22:12.713Z,99125.38
2022-12-31T08:25:15.485Z,99132.06
2022-12-31T08:28:06.778Z,99131.63
2022-12-31T08:31:02.923Z,99143.94
2022-12-31T08:34:06.238Z,99149.75
2022-12-31T08:36:47.904Z,99146.19
2022-12-31T08:39:51.442Z,99154.66
2022-12-31T08:42:32.750Z,99196.19
2022-12-31T08:45:34.441Z,99166.97
2022-12-31T08:48:24.024Z,99177.38
2022-12-31T08:50:50.851Z,99174.13
2022-12-31T08:53:17.652Z,99170.09
2022-12-31T08:55:46.856Z,99169.75
2022-12-31T08:58:25.316Z,99172.19
2022-12-31T09:00:56.591Z,99186.31
2022-12-31T09:03:35.350Z,99183.72
2022-12-31T09:06:23.833Z,99192.63
2022-12-31T09:08:52.984Z,99190.84
2022-12-31T09:11:34.687Z,99194.59
2022-12-31T09:14:12.000Z,99187.44
2022-12-31T09:16:58.832Z,99191.84
2022-12-31T09:19:25.498Z,99199.78
2022-12-31T09:21:52.250Z,99192.50
2022-12-31T09:24:19.255Z,99191.72
2022-12-31T09:27:13.171Z,99198.84
2022-12-31T09:29:57.373Z,99205.66
2022-12-31T09:32:23.823Z,99208.09
2022-12-31T09:34:54.853Z,99211.34
2022-12-31T09:37:46.800Z,99216.38
2022-12-31T09:40:22.360Z,99219.81
2022-12-31T09:42:54.841Z,99226.28
2022-12-31T09:45:36.400Z,99224.81
2022-12-31T09:48:28.812Z,99231.97
2022-12-31T09:51:25.250Z,99228.03
2022-12-31T09:54:22.536Z,99242.66
2022-12-31T09:57:19.830Z,99244.66
2022-12-31T09:59:51.383Z,99246.59
2022-12-31T10:02:42.615Z,99246.91
2022-12-31T10:05:27.815Z,99257.16
2022-12-31T10:08:20.671Z,99259.72
2022-12-31T10:10:54.606Z,99275.16
2022-12-31T10:13:32.371Z,99258.91
2022-12-31T10:16:01.743Z,99278.22
2022-12-31T10:18:55.400Z,99275.94
2022-12-31T10:21:37.245Z,99276.16
2022-12-31T10:24:48.147Z,99282.00
2022-12-31T10:27:20.532Z,99277.44
2022-12-31T10:29:57.792Z,99288.00
2022-12-31T10:33:01.589Z,99285.56
2022-12-31T10:35:38.733Z,99296.94
2022-12-31T10:38:32.940Z,99300.03
2022-12-31T10:41:11.651Z,99301.81
2022-12-31T10:44:13.516Z,99299.56
2022-12-31T10:47:16.273Z,99304.59
2022-12-31T10:50:10.714Z,99323.94
2022-12-31T10:53:03.208Z,99314.50
2022-12-31T10:55:51.342Z,99332.19
2022-12-31T10:58:20.568Z,99327.16
2022-12-31T11:01:02.177Z,99332.38
2022-12-31T11:03:49.002Z,99339.53
2022-12-31T11:06:33.728Z,99348.13
2022-12-31T11:09:03.402Z,99347.47
2022-12-31T11:11:49.138Z,99362.09
2022-12-31T11:14:40.062Z,99370.38
2022-12-31T11:17:34.303Z,99370.69
2022-12-31T11:20:31.429Z,99371.00
2022-12-31T11:23:37.006Z,99377.50
2022-12-31T11:26:06.184Z,99383.47
2022-12-31T11:28:44.595Z,99382.97
2022-12-31T11:31:22.999Z,99393.03
2022-12-31T11:33:55.461Z,99401.16
2022-12-31T11:37:19.549Z,99402.59
2022-12-31T11:40:01.348Z,99410.91
2022-12-31T11:42:43.446Z,99415.59
2022-12-31T11:45:27.068Z,99417.22
2022-12-31T11:51:36.201Z,99436.53
2022-12-31T11:54:28.605Z,99445.38
2022-12-31T11:57:27.433Z,99445.09
2022-12-31T12:00:00.242Z,99449.50
2022-12-31T12:02:34.402Z,99456.59
2022-12-31T12:05:10.641Z,99459.34
2022-12-31T12:07:37.904Z,99471.16
2022-12-31T12:10:17.693Z,99459.84
2022-12-31T12:12:44.510Z,99465.19
2022-12-31T12:15:18.523Z,99471.56
2022-12-31T12:17:51.912Z,99468.00
2022-12-31T12:20:46.302Z,99464.75
2022-12-31T12:23:21.700Z,99468.00
2022-12-31T12:25:48.228Z,99474.50
2022-12-31T12:28:31.641Z,99481.69
2022-12-31T12:31:05.547Z,99480.88
2022-12-31T12:33:45.223Z,99483.78
2022-12-31T12:36:14.470Z,99479.41
2022-12-31T12:38:41.550Z,99490.97
2022-12-31T12:41:19.107Z,99494.38
2022-12-31T12:43:45.830Z,99480.94
2022-12-31T12:46:23.524Z,99489.19
2022-12-31T12:48:55.540Z,99494.38
2022-12-31T12:51:40.177Z,99503.28
2022-12-31T12:54:19.699Z,99516.13
2022-12-31T12:56:52.333Z,99515.13
2022-12-31T12:59:27.656Z,99513.84
2022-12-31T13:02:20.394Z,99510.75
2022-12-31T13:05:14.622Z,99528.47
2022-12-31T13:08:00.238Z,99515.13
2022-12-31T13:10:48.644Z,99501.75
2022-12-31T13:13:56.199Z,99502.50
2022-12-31T13:16:22.764Z,99501.59
2022-12-31T13:18:57.948Z,99509.00
2022-12-31T13:21:30.551Z,99503.28
2022-12-31T13:24:06.929Z,99507.00
2022-12-31T13:26:52.361Z,99502.94
2022-12-31T13:29:23.946Z,99509.38
2022-12-31T13:31:52.415Z,99514.78
2022-12-31T13:34:27.374Z,99519.97
2022-12-31T13:36:59.189Z,99522.50
2022-12-31T13:39:30.234Z,99526.09
2022-12-31T13:42:07.456Z,99532.84
2022-12-31T13:44:44.272Z,99524.59
2022-12-31T13:47:17.659Z,99531.63
2022-12-31T13:49:55.993Z,99570.44
2022-12-31T13:52:59.939Z,99534.06
2022-12-31T13:55:40.129Z,99542.06
2022-12-31T13:58:30.211Z,99542.22
2022-12-31T14:01:04.612Z,99551.59
2022-12-31T14:03:31.122Z,99539.56
2022-12-31T14:06:23.855Z,99538.66
2022-12-31T14:08:52.615Z,99544.88
2022-12-31T14:11:44.007Z,99539.09
2022-12-31T14:14:27.051Z,99543.16
2022-12-31T14:17:03.572Z,99543.00
2022-12-31T14:19:48.273Z,99540.88
2022-12-31T14:22:34.302Z,99539.91
2022-12-31T14:25:03.858Z,99535.72
2022-12-31T14:27:38.710Z,99539.81
2022-12-31T14:30:19.222Z,99551.00
2022-12-31T14:32:46.290Z,99543.69
2022-12-31T14:35:22.104Z,99544.06
2022-12-31T14:38:02.796Z,99550.88
2022-12-31T14:40:46.241Z,99555.47
2022-12-31T14:43:26.502Z,99555.47
2022-12-31T14:46:29.863Z,99560.66
2022-12-31T14:49:28.375Z,99569.13
2022-12-31T14:51:54.853Z,99571.25
2022-12-31T14:54:38.072Z,99571.59
2022-12-31T14:57:16.775Z,99574.22
2022-12-31T14:59:58.886Z,99576.50
2022-12-31T15:02:33.532Z,99575.69
2022-12-31T15:05:23.431Z,99581.19
2022-12-31T15:08:17.809Z,99580.69
2022-12-31T15:11:05.989Z,99574.34
2022-12-31T15:13:53.896Z,99577.13
2022-12-31T15:16:42.007Z,99573.69
2022-12-31T15:19:56.242Z,99565.53
2022-12-31T15:22:51.140Z,99563.47
2022-12-31T15:25:27.293Z,99560.03
2022-12-31T15:27:59.517Z,99567.38
2022-12-31T15:30:29.234Z,99565.91
2022-12-31T15:32:59.064Z,99562.50
2022-12-31T15:35:31.471Z,99562.28
2022-12-31T15:38:11.584Z,99570.44
2022-12-31T15:40:50.858Z,99572.06
2022-12-31T15:43:17.286Z,99553.22
2022-12-31T15:45:44.161Z,99549.81
2022-12-31T15:48:20.056Z,99550.47
2022-12-31T15:50:49.613Z,99546.50
2022-12-31T15:53:44.122Z,99543.75
2022-12-31T15:56:19.813Z,99553.53
2022-12-31T15:58:50.043Z,99545.06
2022-12-31T16:01:23.073Z,99551.28
2022-12-31T16:03:56.597Z,99543.28
2022-12-31T16:06:25.592Z,99539.38
2022-12-31T16:08:52.149Z,99544.34
2022-12-31T16:11:18.978Z,99553.78
2022-12-31T16:13:48.736Z,99562.38
2022-12-31T16:16:25.633Z,99560.09
2022-12-31T16:18:52.814Z,99564.47
2022-12-31T16:21:30.399Z,99560.25
2022-12-31T16:24:00.035Z,99554.25
2022-12-31T16:26:49.674Z,99566.69
2022-12-31T16:29:19.201Z,99563.72
2022-12-31T16:31:48.415Z,99562.41
2022-12-31T16:34:24.302Z,99574.19
2022-12-31T16:37:06.346Z,99572.59
2022-12-31T16:39:36.133Z,99563.19
2022-12-31T16:42:17.288Z,99580.72
2022-12-31T16:44:44.030Z,99581.84
2022-12-31T16:47:19.627Z,99583.28
2022-12-31T16:49:50.371Z,99583.81
2022-12-31T16:52:38.514Z,99586.88
2022-12-31T16:55:24.578Z,99585.22
2022-12-31T16:57:54.373Z,99588.28
2022-12-31T17:00:23.673Z,99586.13
2022-12-31T17:03:16.581Z,99587.56
2022-12-31T17:06:02.013Z,99581.31
2022-12-31T17:08:57.932Z,99576.94
2022-12-31T17:11:27.771Z,99565.00
2022-12-31T17:14:19.203Z,99571.38
2022-12-31T17:17:06.959Z,99576.41
2022-12-31T17:19:49.213Z,99566.84
2022-12-31T17:22:37.186Z,99560.97
2022-12-31T17:25:05.481Z,99568.63
2022-12-31T17:27:32.657Z,99597.84
2022-12-31T17:30:27.104Z,99546.41
2022-12-31T17:33:00.680Z,99555.53
2022-12-31T17:35:36.132Z,99553.69
2022-12-31T17:38:17.986Z,99559.88
2022-12-31T17:40:51.411Z,99553.19
2022-12-31T17:43:20.516Z,99544.28
2022-12-31T17:45:50.080Z,99549.94
2022-12-31T17:48:19.215Z,99546.31
2022-12-31T17:50:57.302Z,99543.78
2022-12-31T17:53:24.145Z,99537.28
2022-12-31T17:55:56.575Z,99540.69
2022-12-31T17:58:29.842Z,99537.94
2022-12-31T18:00:57.550Z,99538.25
2022-12-31T18:03:24.304Z,99532.53
2022-12-31T18:05:50.978Z,99528.47
2022-12-31T18:08:17.497Z,99537.81
2022-12-31T18:10:45.511Z,99525.59
2022-12-31T18:13:18.862Z,99519.31
2022-12-31T18:15:45.961Z,99518.28
2022-12-31T18:18:29.655Z,99522.50
2022-12-31T18:21:20.865Z,99522.69
2022-12-31T18:23:48.557Z,99527.00
2022-12-31T18:26:17.391Z,99532.50
2022-12-31T18:28:44.326Z,99531.44
2022-12-31T18:31:26.365Z,99525.09
2022-12-31T18:33:54.613Z,99516.34
2022-12-31T18:36:22.913Z,99508.03
2022-12-31T18:38:50.746Z,99501.38
2022-12-31T18:41:26.257Z,99504.91
2022-12-31T18:43:53.302Z,99503.31
2022-12-31T18:46:22.700Z,99504.16
2022-12-31T18:48:49.374Z,99502.09
2022-12-31T18:51:29.605Z,99515.66
2022-12-31T18:54:00.632Z,99507.22
2022-12-31T18:56:27.729Z,99504.69
2022-12-31T18:58:54.651Z,99492.19
2022-12-31T19:01:28.820Z,99496.34
2022-12-31T19:03:58.070Z,99485.22
2022-12-31T19:06:25.315Z,99471.41
2022-12-31T19:08:52.253Z,99477.16
2022-12-31T19:11:19.908Z,99470.47
2022-12-31T19:13:47.978Z,99475.13
2022-12-31T19:16:14.921Z,99475.94
2022-12-31T19:18:41.908Z,99473.59
2022-12-31T19:21:18.041Z,99485.22
2022-12-31T19:23:45.924Z,99494.19
2022-12-31T19:26:15.937Z,99485.72
2022-12-31T19:28:43.225Z,99484.47
2022-12-31T19:31:09.837Z,99480.31
2022-12-31T19:33:36.462Z,99481.66
2022-12-31T19:36:04.028Z,99464.59
2022-12-31T19:38:30.644Z,99470.06
2022-12-31T19:40:57.522Z,99462.78
2022-12-31T19:43:24.412Z,99465.31
2022-12-31T19:45:51.985Z,99464.78
2022-12-31T19:48:30.443Z,99458.31
2022-12-31T19:50:59.187Z,99464.00
2022-12-31T19:53:27.380Z,99452.69
2022-12-31T19:55:54.387Z,99451.72
2022-12-31T19:58:23.723Z,99452.63
2022-12-31T20:00:56.802Z,99452.72
2022-12-31T20:03:25.680Z,99444.19
2022-12-31T20:06:04.835Z,99451.44
2022-12-31T20:08:31.517Z,99440.25
2022-12-31T20:10:58.256Z,99432.91
2022-12-31T20:13:27.609Z,99419.19
2022-12-31T20:15:54.327Z,99425.59
2022-12-31T20:18:20.887Z,99433.66
2022-12-31T20:20:53.441Z,99429.97
2022-12-31T20:23:22.197Z,99429.59
2022-12-31T20:25:59.319Z,99416.50
2022-12-31T20:28:26.763Z,99415.16
2022-12-31T20:30:53.628Z,99408.97
2022-12-31T20:33:20.404Z,99449.03
2022-12-31T20:35:47.021Z,99404.31
2022-12-31T20:38:14.398Z,99405.06
2022-12-31T20:40:46.438Z,99388.75
2022-12-31T20:43:13.762Z,99384.25
2022-12-31T20:45:41.076Z,99386.53
2022-12-31T20:48:07.717Z,99394.88
2022-12-31T20:50:34.376Z,99399.09
2022-12-31T20:53:01.115Z,99395.47
2022-12-31T20:55:27.744Z,99390.09
2022-12-31T20:57:54.284Z,99385.97
2022-12-31T21:00:20.789Z,99385.06
2022-12-31T21:02:56.332Z,99387.34
2022-12-31T21:05:27.450Z,99386.53
2022-12-31T21:07:54.108Z,99376.56
2022-12-31T21:10:20.589Z,99382.31
2022-12-31T21:12:47.286Z,99368.50
2022-12-31T21:15:13.918Z,99371.88
2022-12-31T21:17:40.493Z,99363.38
2022-12-31T21:20:07.774Z,99359.44
2022-12-31T21:22:34.273Z,99355.06
2022-12-31T21:25:02.165Z,99352.03
2022-12-31T21:27:29.777Z,99357.94
2022-12-31T21:30:20.812Z,99343.81
2022-12-31T21:32:43.009Z,99341.16
2022-12-31T21:38:00.802Z,99330.34
2022-12-31T21:40:28.214Z,99339.66
2022-12-31T21:42:54.879Z,99338.59
2022-12-31T21:45:21.411Z,99337.41
2022-12-31T21:47:48.032Z,99320.91
2022-12-31T21:50:14.720Z,99327.72
2022-12-31T21:52:41.266Z,99319.53
2022-12-31T21:55:08.395Z,99319.72
2022-12-31T21:57:59.197Z,99311.94
2022-12-31T22:00:41.759Z,99310.88
2022-12-31T22:03:12.038Z,99305.75
2022-12-31T22:05:45.129Z,99303.88
2022-12-31T22:08:11.733Z,99294.88
2022-12-31T22:10:42.827Z,99306.78
2022-12-31T22:13:16.005Z,99309.34
2022-12-31T22:15:46.902Z,99307.28
2022-12-31T22:18:15.445Z,99301.00
2022-12-31T22:20:42.183Z,99294.50
2022-12-31T22:23:08.805Z,99291.91
2022-12-31T22:25:36.621Z,99281.56
2022-12-31T22:28:36.995Z,99283.09
2022-12-31T22:30:50.988Z,99275.28
2022-12-31T22:33:17.762Z,99273.75
2022-12-31T22:35:44.352Z,99272.13
2022-12-31T22:38:12.323Z,99274.38
2022-12-31T22:40:39.147Z,99267.16
2022-12-31T22:43:05.719Z,99266.34
2022-12-31T22:45:32.254Z,99258.81
2022-12-31T22:47:58.898Z,99260.50
2022-12-31T22:50:25.421Z,99267.63
2022-12-31T22:52:51.988Z,99255.44
2022-12-31T22:55:18.587Z,99268.38
2022-12-31T22:57:45.085Z,99261.69
2022-12-31T23:00:13.747Z,99267.22
2022-12-31T23:02:42.218Z,99264.03
2022-12-31T23:05:15.263Z,99249.25
2022-12-31T23:07:42.993Z,99252.72
2022-12-31T23:10:10.797Z,99246.25
2022-12-31T23:12:37.428Z,99238.53
2022-12-31T23:15:04.528Z,99236.56
2022-12-31T23:18:10.004Z,99241.94
2022-12-31T23:20:36.581Z,99242.25
2022-12-31T23:23:03.515Z,99235.72
2022-12-31T23:25:36.592Z,99224.03
2022-12-31T23:28:04.359Z,99230.03
2022-12-31T23:30:30.983Z,99221.09
2022-12-31T23:32:57.551Z,99212.88
2022-12-31T23:35:24.202Z,99212.22
2022-12-31T23:37:50.772Z,99206.38
2022-12-31T23:40:21.454Z,99217.00
2022-12-31T23:42:48.921Z,99212.47
2022-12-31T23:45:15.651Z,99209.63
2022-12-31T23:47:42.270Z,99216.19
2022-12-31T23:50:08.953Z,99202.44
2022-12-31T23:52:35.592Z,99198.75
2022-12-31T23:55:02.106Z,99177.47
2022-12-31T23:57:28.746Z,99190.31
2022-12-31T23:59:55.334Z,99179.38
